sensor_id;sensor_type;location;lat;lon;timestamp;temperature;humidity
8676;DHT22;4375;52.486;13.424;2023-07-08T00:00:52;20.40;99.40
8676;DHT22;4375;52.486;13.424;2023-07-08T00:03:19;20.40;99.70
8676;DHT22;4375;52.486;13.424;2023-07-08T00:05:47;20.40;99.90
8676;DHT22;4375;52.486;13.424;2023-07-08T00:08:17;20.40;99.90
8676;DHT22;4375;52.486;13.424;2023-07-08T00:10:44;20.40;99.90
8676;DHT22;4375;52.486;13.424;2023-07-08T00:13:10;20.40;99.90
8676;DHT22;4375;52.486;13.424;2023-07-08T00:15:37;20.40;99.70
8676;DHT22;4375;52.486;13.424;2023-07-08T00:18:14;20.40;99.70
8676;DHT22;4375;52.486;13.424;2023-07-08T00:20:45;20.40;99.70
8676;DHT22;4375;52.486;13.424;2023-07-08T00:23:12;20.40;99.50
8676;DHT22;4375;52.486;13.424;2023-07-08T00:25:38;20.40;99.40
8676;DHT22;4375;52.486;13.424;2023-07-08T00:28:13;20.30;99.50
8676;DHT22;4375;52.486;13.424;2023-07-08T00:30:40;20.40;99.40
8676;DHT22;4375;52.486;13.424;2023-07-08T00:33:06;20.40;99.50
8676;DHT22;4375;52.486;13.424;2023-07-08T00:35:35;20.40;99.70
8676;DHT22;4375;52.486;13.424;2023-07-08T00:38:27;20.40;99.90
8676;DHT22;4375;52.486;13.424;2023-07-08T00:40:59;20.30;99.90
8676;DHT22;4375;52.486;13.424;2023-07-08T00:43:46;20.30;99.90
8676;DHT22;4375;52.486;13.424;2023-07-08T00:49:05;20.30;99.90
8676;DHT22;4375;52.486;13.424;2023-07-08T00:51:37;20.20;99.90
8676;DHT22;4375;52.486;13.424;2023-07-08T00:54:13;20.20;99.90
8676;DHT22;4375;52.486;13.424;2023-07-08T00:59:36;20.20;99.90
8676;DHT22;4375;52.486;13.424;2023-07-08T01:02:06;20.10;99.90
8676;DHT22;4375;52.486;13.424;2023-07-08T01:04:52;20.00;99.90
8676;DHT22;4375;52.486;13.424;2023-07-08T01:07:20;19.90;99.90
8676;DHT22;4375;52.486;13.424;2023-07-08T01:09:57;19.80;99.90
8676;DHT22;4375;52.486;13.424;2023-07-08T01:12:29;19.80;99.90
8676;DHT22;4375;52.486;13.424;2023-07-08T01:14:57;19.80;99.90
8676;DHT22;4375;52.486;13.424;2023-07-08T01:17:24;19.70;99.90
8676;DHT22;4375;52.486;13.424;2023-07-08T01:19:50;19.70;99.90
8676;DHT22;4375;52.486;13.424;2023-07-08T01:22:16;19.70;99.90
8676;DHT22;4375;52.486;13.424;2023-07-08T01:24:43;19.60;99.90
8676;DHT22;4375;52.486;13.424;2023-07-08T01:27:13;19.60;99.90
8676;DHT22;4375;52.486;13.424;2023-07-08T01:29:40;19.60;99.90
8676;DHT22;4375;52.486;13.424;2023-07-08T01:32:06;19.70;99.90
8676;DHT22;4375;52.486;13.424;2023-07-08T01:34:33;19.70;99.90
8676;DHT22;4375;52.486;13.424;2023-07-08T01:37:01;19.70;99.90
8676;DHT22;4375;52.486;13.424;2023-07-08T01:39:29;19.70;99.90
8676;DHT22;4375;52.486;13.424;2023-07-08T01:41:56;19.70;99.90
8676;DHT22;4375;52.486;13.424;2023-07-08T01:44:22;19.70;99.90
8676;DHT22;4375;52.486;13.424;2023-07-08T01:46:49;19.60;99.90
8676;DHT22;4375;52.486;13.424;2023-07-08T01:49:16;19.60;99.90
8676;DHT22;4375;52.486;13.424;2023-07-08T01:51:42;19.50;99.90
8676;DHT22;4375;52.486;13.424;2023-07-08T01:54:07;19.50;99.90
8676;DHT22;4375;52.486;13.424;2023-07-08T01:56:33;19.40;99.90
8676;DHT22;4375;52.486;13.424;2023-07-08T01:58:59;19.40;99.90
8676;DHT22;4375;52.486;13.424;2023-07-08T02:01:24;19.30;99.90
8676;DHT22;4375;52.486;13.424;2023-07-08T02:03:50;19.30;99.90
8676;DHT22;4375;52.486;13.424;2023-07-08T02:06:16;19.30;99.90
8676;DHT22;4375;52.486;13.424;2023-07-08T02:08:41;19.20;99.90
8676;DHT22;4375;52.486;13.424;2023-07-08T02:11:07;19.20;99.90
8676;DHT22;4375;52.486;13.424;2023-07-08T02:13:32;19.20;99.90
8676;DHT22;4375;52.486;13.424;2023-07-08T02:15:58;19.20;99.90
8676;DHT22;4375;52.486;13.424;2023-07-08T02:18:24;19.20;99.90
8676;DHT22;4375;52.486;13.424;2023-07-08T02:20:50;19.20;99.90
8676;DHT22;4375;52.486;13.424;2023-07-08T02:23:16;19.10;99.90
8676;DHT22;4375;52.486;13.424;2023-07-08T02:25:41;19.10;99.90
8676;DHT22;4375;52.486;13.424;2023-07-08T02:28:07;19.10;99.90
8676;DHT22;4375;52.486;13.424;2023-07-08T02:30:32;19.10;99.90
8676;DHT22;4375;52.486;13.424;2023-07-08T02:32:58;19.10;99.90
8676;DHT22;4375;52.486;13.424;2023-07-08T02:35:26;19.10;99.90
8676;DHT22;4375;52.486;13.424;2023-07-08T02:37:52;19.10;99.90
8676;DHT22;4375;52.486;13.424;2023-07-08T02:40:18;19.00;99.90
8676;DHT22;4375;52.486;13.424;2023-07-08T02:42:44;19.00;99.90
8676;DHT22;4375;52.486;13.424;2023-07-08T02:45:11;19.00;99.90
8676;DHT22;4375;52.486;13.424;2023-07-08T02:47:37;19.00;99.90
8676;DHT22;4375;52.486;13.424;2023-07-08T02:50:03;19.00;99.90
8676;DHT22;4375;52.486;13.424;2023-07-08T02:52:30;19.00;99.90
8676;DHT22;4375;52.486;13.424;2023-07-08T02:54:55;18.90;99.90
8676;DHT22;4375;52.486;13.424;2023-07-08T02:57:21;19.00;99.90
8676;DHT22;4375;52.486;13.424;2023-07-08T02:59:46;19.00;99.90
8676;DHT22;4375;52.486;13.424;2023-07-08T03:02:12;19.00;99.90
8676;DHT22;4375;52.486;13.424;2023-07-08T03:04:38;19.10;99.90
8676;DHT22;4375;52.486;13.424;2023-07-08T03:07:05;19.10;99.90
8676;DHT22;4375;52.486;13.424;2023-07-08T03:09:31;19.20;99.90
8676;DHT22;4375;52.486;13.424;2023-07-08T03:11:58;19.10;99.90
8676;DHT22;4375;52.486;13.424;2023-07-08T03:14:24;19.10;99.90
8676;DHT22;4375;52.486;13.424;2023-07-08T03:16:50;19.10;99.90
8676;DHT22;4375;52.486;13.424;2023-07-08T03:19:15;19.10;99.90
8676;DHT22;4375;52.486;13.424;2023-07-08T03:21:43;19.20;99.90
8676;DHT22;4375;52.486;13.424;2023-07-08T03:24:13;19.20;99.90
8676;DHT22;4375;52.486;13.424;2023-07-08T03:26:39;19.20;99.90
8676;DHT22;4375;52.486;13.424;2023-07-08T03:29:05;19.20;99.90
8676;DHT22;4375;52.486;13.424;2023-07-08T03:31:30;19.20;99.90
8676;DHT22;4375;52.486;13.424;2023-07-08T03:33:56;19.20;99.90
8676;DHT22;4375;52.486;13.424;2023-07-08T03:36:22;19.20;99.90
8676;DHT22;4375;52.486;13.424;2023-07-08T03:38:49;19.20;99.90
8676;DHT22;4375;52.486;13.424;2023-07-08T03:41:15;19.20;99.90
8676;DHT22;4375;52.486;13.424;2023-07-08T03:43:40;19.20;99.90
8676;DHT22;4375;52.486;13.424;2023-07-08T03:46:10;19.20;99.90
8676;DHT22;4375;52.486;13.424;2023-07-08T03:48:38;19.20;99.90
8676;DHT22;4375;52.486;13.424;2023-07-08T03:51:06;19.20;99.90
8676;DHT22;4375;52.486;13.424;2023-07-08T03:53:34;19.10;99.90
8676;DHT22;4375;52.486;13.424;2023-07-08T03:55:59;19.10;99.90
8676;DHT22;4375;52.486;13.424;2023-07-08T03:58:25;19.00;99.90
8676;DHT22;4375;52.486;13.424;2023-07-08T04:00:50;19.10;99.90
8676;DHT22;4375;52.486;13.424;2023-07-08T04:03:16;19.20;99.90
8676;DHT22;4375;52.486;13.424;2023-07-08T04:05:42;19.20;99.90
8676;DHT22;4375;52.486;13.424;2023-07-08T04:08:07;19.20;99.90
8676;DHT22;4375;52.486;13.424;2023-07-08T04:10:33;19.20;99.90
8676;DHT22;4375;52.486;13.424;2023-07-08T04:12:58;19.20;99.90
8676;DHT22;4375;52.486;13.424;2023-07-08T04:15:24;19.10;99.90
8676;DHT22;4375;52.486;13.424;2023-07-08T04:17:51;19.30;99.90
8676;DHT22;4375;52.486;13.424;2023-07-08T04:20:18;19.30;99.90
8676;DHT22;4375;52.486;13.424;2023-07-08T04:22:45;19.30;99.90
8676;DHT22;4375;52.486;13.424;2023-07-08T04:25:12;19.40;99.90
8676;DHT22;4375;52.486;13.424;2023-07-08T04:27:39;19.30;99.90
8676;DHT22;4375;52.486;13.424;2023-07-08T04:30:06;19.40;99.90
8676;DHT22;4375;52.486;13.424;2023-07-08T04:32:32;19.40;99.90
8676;DHT22;4375;52.486;13.424;2023-07-08T04:34:58;19.40;99.90
8676;DHT22;4375;52.486;13.424;2023-07-08T04:37:23;19.60;99.90
8676;DHT22;4375;52.486;13.424;2023-07-08T04:39:49;19.50;99.90
8676;DHT22;4375;52.486;13.424;2023-07-08T04:42:15;19.50;99.90
8676;DHT22;4375;52.486;13.424;2023-07-08T04:44:42;19.50;99.90
8676;DHT22;4375;52.486;13.424;2023-07-08T04:47:08;19.70;99.90
8676;DHT22;4375;52.486;13.424;2023-07-08T04:49:35;19.70;99.90
8676;DHT22;4375;52.486;13.424;2023-07-08T04:52:01;19.70;99.90
8676;DHT22;4375;52.486;13.424;2023-07-08T04:54:28;19.70;99.90
8676;DHT22;4375;52.486;13.424;2023-07-08T04:56:54;19.70;99.90
8676;DHT22;4375;52.486;13.424;2023-07-08T04:59:24;19.80;99.90
8676;DHT22;4375;52.486;13.424;2023-07-08T05:01:51;19.80;99.90
8676;DHT22;4375;52.486;13.424;2023-07-08T05:04:21;19.80;99.90
8676;DHT22;4375;52.486;13.424;2023-07-08T05:06:47;19.90;99.90
8676;DHT22;4375;52.486;13.424;2023-07-08T05:09:13;20.00;99.90
8676;DHT22;4375;52.486;13.424;2023-07-08T05:11:39;20.10;99.90
8676;DHT22;4375;52.486;13.424;2023-07-08T05:14:05;20.10;99.90
8676;DHT22;4375;52.486;13.424;2023-07-08T05:16:33;20.10;99.90
8676;DHT22;4375;52.486;13.424;2023-07-08T05:18:59;20.10;99.90
8676;DHT22;4375;52.486;13.424;2023-07-08T05:21:25;20.10;99.90
8676;DHT22;4375;52.486;13.424;2023-07-08T05:23:52;20.20;99.90
8676;DHT22;4375;52.486;13.424;2023-07-08T05:26:19;20.20;99.90
8676;DHT22;4375;52.486;13.424;2023-07-08T05:28:45;20.30;99.90
8676;DHT22;4375;52.486;13.424;2023-07-08T05:31:11;20.40;99.90
8676;DHT22;4375;52.486;13.424;2023-07-08T05:33:36;20.50;99.90
8676;DHT22;4375;52.486;13.424;2023-07-08T05:36:02;20.50;99.90
8676;DHT22;4375;52.486;13.424;2023-07-08T05:38:28;20.50;99.90
8676;DHT22;4375;52.486;13.424;2023-07-08T05:40:55;20.60;99.90
8676;DHT22;4375;52.486;13.424;2023-07-08T05:43:22;20.70;99.90
8676;DHT22;4375;52.486;13.424;2023-07-08T05:45:48;20.70;99.90
8676;DHT22;4375;52.486;13.424;2023-07-08T05:48:13;20.80;99.90
8676;DHT22;4375;52.486;13.424;2023-07-08T05:50:39;20.80;99.90
8676;DHT22;4375;52.486;13.424;2023-07-08T05:53:09;20.80;99.90
8676;DHT22;4375;52.486;13.424;2023-07-08T05:55:34;20.90;99.90
8676;DHT22;4375;52.486;13.424;2023-07-08T05:58:00;20.90;99.90
8676;DHT22;4375;52.486;13.424;2023-07-08T06:00:26;20.90;99.90
8676;DHT22;4375;52.486;13.424;2023-07-08T06:02:52;21.10;99.90
8676;DHT22;4375;52.486;13.424;2023-07-08T06:05:17;21.20;99.90
8676;DHT22;4375;52.486;13.424;2023-07-08T06:07:43;21.30;99.90
8676;DHT22;4375;52.486;13.424;2023-07-08T06:10:09;21.30;99.90
8676;DHT22;4375;52.486;13.424;2023-07-08T06:12:34;21.40;99.90
8676;DHT22;4375;52.486;13.424;2023-07-08T06:15:00;21.40;99.90
8676;DHT22;4375;52.486;13.424;2023-07-08T06:17:26;21.50;99.90
8676;DHT22;4375;52.486;13.424;2023-07-08T06:19:52;21.60;99.90
8676;DHT22;4375;52.486;13.424;2023-07-08T06:22:18;21.70;99.90
8676;DHT22;4375;52.486;13.424;2023-07-08T06:24:43;21.70;99.90
8676;DHT22;4375;52.486;13.424;2023-07-08T06:27:09;21.80;99.90
8676;DHT22;4375;52.486;13.424;2023-07-08T06:29:35;21.90;99.90
8676;DHT22;4375;52.486;13.424;2023-07-08T06:32:01;22.00;99.90
8676;DHT22;4375;52.486;13.424;2023-07-08T06:34:27;22.00;99.90
8676;DHT22;4375;52.486;13.424;2023-07-08T06:36:53;22.10;99.90
8676;DHT22;4375;52.486;13.424;2023-07-08T06:39:19;22.20;99.90
8676;DHT22;4375;52.486;13.424;2023-07-08T06:41:45;22.20;99.90
8676;DHT22;4375;52.486;13.424;2023-07-08T06:44:11;22.40;99.90
8676;DHT22;4375;52.486;13.424;2023-07-08T06:46:37;22.40;99.90
8676;DHT22;4375;52.486;13.424;2023-07-08T06:49:02;22.50;99.90
8676;DHT22;4375;52.486;13.424;2023-07-08T06:51:28;22.50;99.90
8676;DHT22;4375;52.486;13.424;2023-07-08T06:53:54;22.70;99.90
8676;DHT22;4375;52.486;13.424;2023-07-08T06:56:20;22.80;99.90
8676;DHT22;4375;52.486;13.424;2023-07-08T06:58:46;23.00;99.90
8676;DHT22;4375;52.486;13.424;2023-07-08T07:01:12;23.00;99.90
8676;DHT22;4375;52.486;13.424;2023-07-08T07:03:38;23.10;99.90
8676;DHT22;4375;52.486;13.424;2023-07-08T07:06:04;23.20;99.90
8676;DHT22;4375;52.486;13.424;2023-07-08T07:08:29;23.20;99.90
8676;DHT22;4375;52.486;13.424;2023-07-08T07:10:55;23.20;99.90
8676;DHT22;4375;52.486;13.424;2023-07-08T07:13:21;23.30;99.90
8676;DHT22;4375;52.486;13.424;2023-07-08T07:15:49;23.40;99.90
8676;DHT22;4375;52.486;13.424;2023-07-08T07:18:14;23.50;99.90
8676;DHT22;4375;52.486;13.424;2023-07-08T07:20:50;24.70;99.90
8676;DHT22;4375;52.486;13.424;2023-07-08T07:23:16;27.60;99.90
8676;DHT22;4375;52.486;13.424;2023-07-08T07:25:42;30.30;95.10
8676;DHT22;4375;52.486;13.424;2023-07-08T07:28:09;30.00;92.70
8676;DHT22;4375;52.486;13.424;2023-07-08T07:30:40;30.10;91.80
8676;DHT22;4375;52.486;13.424;2023-07-08T07:33:12;29.30;91.70
8676;DHT22;4375;52.486;13.424;2023-07-08T07:35:45;28.40;91.50
8676;DHT22;4375;52.486;13.424;2023-07-08T07:38:24;28.70;91.50
8676;DHT22;4375;52.486;13.424;2023-07-08T07:44:00;31.60;89.80
8676;DHT22;4375;52.486;13.424;2023-07-08T07:46:28;34.00;80.00
8676;DHT22;4375;52.486;13.424;2023-07-08T07:48:54;33.70;78.80
8676;DHT22;4375;52.486;13.424;2023-07-08T07:51:20;34.90;74.30
8676;DHT22;4375;52.486;13.424;2023-07-08T07:53:57;35.30;68.80
8676;DHT22;4375;52.486;13.424;2023-07-08T08:00:07;36.00;67.00
8676;DHT22;4375;52.486;13.424;2023-07-08T08:02:37;36.20;63.70
8676;DHT22;4375;52.486;13.424;2023-07-08T08:05:03;37.10;60.70
8676;DHT22;4375;52.486;13.424;2023-07-08T08:07:28;36.60;59.00
8676;DHT22;4375;52.486;13.424;2023-07-08T08:09:54;33.40;62.10
8676;DHT22;4375;52.486;13.424;2023-07-08T08:12:20;32.70;65.30
8676;DHT22;4375;52.486;13.424;2023-07-08T08:14:50;34.90;63.90
8676;DHT22;4375;52.486;13.424;2023-07-08T08:17:16;35.00;59.50
8676;DHT22;4375;52.486;13.424;2023-07-08T08:23:36;33.80;61.80
8676;DHT22;4375;52.486;13.424;2023-07-08T08:26:27;35.90;59.90
8676;DHT22;4375;52.486;13.424;2023-07-08T08:28:57;37.00;58.70
8676;DHT22;4375;52.486;13.424;2023-07-08T08:31:28;36.30;58.40
8676;DHT22;4375;52.486;13.424;2023-07-08T08:34:18;34.90;57.90
8676;DHT22;4375;52.486;13.424;2023-07-08T08:36:43;34.10;58.90
8676;DHT22;4375;52.486;13.424;2023-07-08T08:39:09;35.20;58.80
8676;DHT22;4375;52.486;13.424;2023-07-08T08:41:39;37.00;57.20
8676;DHT22;4375;52.486;13.424;2023-07-08T08:44:12;38.20;54.50
8676;DHT22;4375;52.486;13.424;2023-07-08T08:46:49;37.50;53.40
8676;DHT22;4375;52.486;13.424;2023-07-08T08:51:48;36.40;54.40
8676;DHT22;4375;52.486;13.424;2023-07-08T08:54:16;37.60;53.50
8676;DHT22;4375;52.486;13.424;2023-07-08T09:02:32;37.50;52.70
8676;DHT22;4375;52.486;13.424;2023-07-08T09:05:04;37.50;51.80
8676;DHT22;4375;52.486;13.424;2023-07-08T09:07:33;37.40;51.80
8676;DHT22;4375;52.486;13.424;2023-07-08T09:10:07;36.90;52.80
8676;DHT22;4375;52.486;13.424;2023-07-08T09:12:35;37.80;52.10
8676;DHT22;4375;52.486;13.424;2023-07-08T09:15:13;38.20;51.70
8676;DHT22;4375;52.486;13.424;2023-07-08T09:17:39;38.90;51.70
8676;DHT22;4375;52.486;13.424;2023-07-08T09:20:21;39.20;48.80
8676;DHT22;4375;52.486;13.424;2023-07-08T09:25:56;38.20;46.80
8676;DHT22;4375;52.486;13.424;2023-07-08T09:28:42;37.50;48.90
8676;DHT22;4375;52.486;13.424;2023-07-08T09:31:16;37.80;49.60
8676;DHT22;4375;52.486;13.424;2023-07-08T09:33:44;37.70;46.30
8676;DHT22;4375;52.486;13.424;2023-07-08T09:36:19;35.10;46.40
8676;DHT22;4375;52.486;13.424;2023-07-08T09:38:48;34.60;49.10
8676;DHT22;4375;52.486;13.424;2023-07-08T09:41:28;36.30;49.60
8676;DHT22;4375;52.486;13.424;2023-07-08T09:44:03;36.70;46.90
8676;DHT22;4375;52.486;13.424;2023-07-08T09:46:30;36.50;47.70
8676;DHT22;4375;52.486;13.424;2023-07-08T09:51:44;35.50;46.60
8676;DHT22;4375;52.486;13.424;2023-07-08T09:54:10;35.40;47.20
8676;DHT22;4375;52.486;13.424;2023-07-08T09:56:43;35.40;47.30
8676;DHT22;4375;52.486;13.424;2023-07-08T09:59:12;35.50;47.60
8676;DHT22;4375;52.486;13.424;2023-07-08T10:01:40;35.20;48.50
8676;DHT22;4375;52.486;13.424;2023-07-08T10:04:06;35.40;48.20
8676;DHT22;4375;52.486;13.424;2023-07-08T10:06:33;34.80;47.70
8676;DHT22;4375;52.486;13.424;2023-07-08T10:09:05;35.40;47.20
8676;DHT22;4375;52.486;13.424;2023-07-08T10:11:39;34.90;47.30
8676;DHT22;4375;52.486;13.424;2023-07-08T10:14:37;34.30;48.20
8676;DHT22;4375;52.486;13.424;2023-07-08T10:17:05;33.70;49.10
8676;DHT22;4375;52.486;13.424;2023-07-08T10:19:31;33.40;49.10
8676;DHT22;4375;52.486;13.424;2023-07-08T10:22:15;33.20;49.30
8676;DHT22;4375;52.486;13.424;2023-07-08T10:25:09;32.10;49.70
8676;DHT22;4375;52.486;13.424;2023-07-08T10:54:26;32.70;49.40
8676;DHT22;4375;52.486;13.424;2023-07-08T10:59:54;32.70;47.50
8676;DHT22;4375;52.486;13.424;2023-07-08T11:08:23;32.20;49.60
8676;DHT22;4375;52.486;13.424;2023-07-08T11:13:29;32.40;50.50
8676;DHT22;4375;52.486;13.424;2023-07-08T11:16:02;32.50;48.60
8676;DHT22;4375;52.486;13.424;2023-07-08T11:18:49;32.70;48.80
8676;DHT22;4375;52.486;13.424;2023-07-08T11:21:41;31.80;49.00
8676;DHT22;4375;52.486;13.424;2023-07-08T11:26:42;31.60;49.60
8676;DHT22;4375;52.486;13.424;2023-07-08T11:29:19;31.40;49.40
8676;DHT22;4375;52.486;13.424;2023-07-08T11:31:46;31.30;49.10
8676;DHT22;4375;52.486;13.424;2023-07-08T11:34:15;31.30;49.40
8676;DHT22;4375;52.486;13.424;2023-07-08T11:36:42;30.90;50.00
8676;DHT22;4375;52.486;13.424;2023-07-08T11:39:38;30.90;49.90
8676;DHT22;4375;52.486;13.424;2023-07-08T11:44:58;31.00;49.80
8676;DHT22;4375;52.486;13.424;2023-07-08T11:47:40;31.10;49.60
8676;DHT22;4375;52.486;13.424;2023-07-08T11:50:29;31.20;49.90
8676;DHT22;4375;52.486;13.424;2023-07-08T11:53:11;30.40;50.10
8676;DHT22;4375;52.486;13.424;2023-07-08T11:55:47;30.10;50.00
8676;DHT22;4375;52.486;13.424;2023-07-08T12:03:51;30.60;50.70
8676;DHT22;4375;52.486;13.424;2023-07-08T12:08:53;30.60;50.50
8676;DHT22;4375;52.486;13.424;2023-07-08T12:12:07;30.80;50.20
8676;DHT22;4375;52.486;13.424;2023-07-08T12:14:13;30.70;50.00
8676;DHT22;4375;52.486;13.424;2023-07-08T12:16:40;30.40;50.10
8676;DHT22;4375;52.486;13.424;2023-07-08T12:19:13;30.40;50.60
8676;DHT22;4375;52.486;13.424;2023-07-08T12:21:41;30.40;50.40
8676;DHT22;4375;52.486;13.424;2023-07-08T12:24:09;30.40;50.90
8676;DHT22;4375;52.486;13.424;2023-07-08T12:26:36;30.40;50.20
8676;DHT22;4375;52.486;13.424;2023-07-08T12:29:02;30.40;50.60
8676;DHT22;4375;52.486;13.424;2023-07-08T12:31:28;30.40;51.00
8676;DHT22;4375;52.486;13.424;2023-07-08T12:33:58;30.40;50.50
8676;DHT22;4375;52.486;13.424;2023-07-08T12:36:28;30.50;51.40
8676;DHT22;4375;52.486;13.424;2023-07-08T12:38:56;30.40;50.60
8676;DHT22;4375;52.486;13.424;2023-07-08T12:41:25;30.20;50.90
8676;DHT22;4375;52.486;13.424;2023-07-08T12:43:51;30.10;51.00
8676;DHT22;4375;52.486;13.424;2023-07-08T12:46:19;30.00;50.70
8676;DHT22;4375;52.486;13.424;2023-07-08T12:48:46;29.90;50.60
8676;DHT22;4375;52.486;13.424;2023-07-08T12:51:14;29.80;50.50
8676;DHT22;4375;52.486;13.424;2023-07-08T12:53:41;29.90;50.50
8676;DHT22;4375;52.486;13.424;2023-07-08T12:56:07;29.90;50.60
8676;DHT22;4375;52.486;13.424;2023-07-08T12:58:38;29.70;50.50
8676;DHT22;4375;52.486;13.424;2023-07-08T13:01:06;29.60;50.60
8676;DHT22;4375;52.486;13.424;2023-07-08T13:03:37;29.40;50.80
8676;DHT22;4375;52.486;13.424;2023-07-08T13:06:07;29.40;50.80
8676;DHT22;4375;52.486;13.424;2023-07-08T13:08:35;29.30;51.00
8676;DHT22;4375;52.486;13.424;2023-07-08T13:11:03;29.40;51.10
8676;DHT22;4375;52.486;13.424;2023-07-08T13:13:38;29.50;51.20
8676;DHT22;4375;52.486;13.424;2023-07-08T13:16:05;29.50;50.70
8676;DHT22;4375;52.486;13.424;2023-07-08T13:18:34;29.40;50.40
8676;DHT22;4375;52.486;13.424;2023-07-08T13:21:00;29.40;50.40
8676;DHT22;4375;52.486;13.424;2023-07-08T13:23:27;29.40;50.20
8676;DHT22;4375;52.486;13.424;2023-07-08T13:25:54;29.50;50.20
8676;DHT22;4375;52.486;13.424;2023-07-08T13:28:37;29.50;50.30
8676;DHT22;4375;52.486;13.424;2023-07-08T13:33:51;29.70;50.30
8676;DHT22;4375;52.486;13.424;2023-07-08T13:36:19;29.70;50.50
8676;DHT22;4375;52.486;13.424;2023-07-08T13:38:46;29.60;50.70
8676;DHT22;4375;52.486;13.424;2023-07-08T13:41:19;29.60;50.80
8676;DHT22;4375;52.486;13.424;2023-07-08T13:43:45;29.60;50.60
8676;DHT22;4375;52.486;13.424;2023-07-08T13:49:11;29.60;49.90
8676;DHT22;4375;52.486;13.424;2023-07-08T13:51:38;29.70;49.80
8676;DHT22;4375;52.486;13.424;2023-07-08T13:56:40;29.80;51.10
8676;DHT22;4375;52.486;13.424;2023-07-08T13:59:09;29.90;51.20
8676;DHT22;4375;52.486;13.424;2023-07-08T14:01:38;30.00;49.70
8676;DHT22;4375;52.486;13.424;2023-07-08T14:04:05;29.90;50.00
8676;DHT22;4375;52.486;13.424;2023-07-08T14:06:36;29.80;49.50
8676;DHT22;4375;52.486;13.424;2023-07-08T14:09:14;29.70;50.00
8676;DHT22;4375;52.486;13.424;2023-07-08T14:11:41;29.70;49.70
8676;DHT22;4375;52.486;13.424;2023-07-08T14:14:08;29.80;50.30
8676;DHT22;4375;52.486;13.424;2023-07-08T14:16:36;29.80;50.50
8676;DHT22;4375;52.486;13.424;2023-07-08T14:19:04;29.90;50.40
8676;DHT22;4375;52.486;13.424;2023-07-08T14:21:32;29.90;50.10
8676;DHT22;4375;52.486;13.424;2023-07-08T14:23:58;29.80;49.20
8676;DHT22;4375;52.486;13.424;2023-07-08T14:26:24;29.80;48.90
8676;DHT22;4375;52.486;13.424;2023-07-08T14:28:50;29.70;49.00
8676;DHT22;4375;52.486;13.424;2023-07-08T14:31:21;29.70;49.20
8676;DHT22;4375;52.486;13.424;2023-07-08T14:33:48;29.80;50.00
8676;DHT22;4375;52.486;13.424;2023-07-08T14:36:14;29.90;50.50
8676;DHT22;4375;52.486;13.424;2023-07-08T14:38:40;30.00;49.80
8676;DHT22;4375;52.486;13.424;2023-07-08T14:41:06;30.00;50.00
8676;DHT22;4375;52.486;13.424;2023-07-08T14:43:33;30.00;48.70
8676;DHT22;4375;52.486;13.424;2023-07-08T14:46:01;29.90;49.10
8676;DHT22;4375;52.486;13.424;2023-07-08T14:48:31;29.80;49.90
8676;DHT22;4375;52.486;13.424;2023-07-08T14:50:58;29.90;50.40
8676;DHT22;4375;52.486;13.424;2023-07-08T14:53:24;29.90;49.70
8676;DHT22;4375;52.486;13.424;2023-07-08T14:55:52;29.90;49.40
8676;DHT22;4375;52.486;13.424;2023-07-08T14:58:26;29.80;49.20
8676;DHT22;4375;52.486;13.424;2023-07-08T15:00:55;29.90;49.50
8676;DHT22;4375;52.486;13.424;2023-07-08T15:03:22;29.80;49.40
8676;DHT22;4375;52.486;13.424;2023-07-08T15:05:48;29.90;49.00
8676;DHT22;4375;52.486;13.424;2023-07-08T15:08:13;29.90;49.00
8676;DHT22;4375;52.486;13.424;2023-07-08T15:10:44;30.00;49.10
8676;DHT22;4375;52.486;13.424;2023-07-08T15:13:10;30.20;48.50
8676;DHT22;4375;52.486;13.424;2023-07-08T15:15:36;30.20;48.90
8676;DHT22;4375;52.486;13.424;2023-07-08T15:18:06;30.20;48.60
8676;DHT22;4375;52.486;13.424;2023-07-08T15:20:35;30.20;49.00
8676;DHT22;4375;52.486;13.424;2023-07-08T15:23:01;30.20;49.50
8676;DHT22;4375;52.486;13.424;2023-07-08T15:25:27;30.20;49.40
8676;DHT22;4375;52.486;13.424;2023-07-08T15:27:55;30.20;49.60
8676;DHT22;4375;52.486;13.424;2023-07-08T15:30:24;30.00;49.10
8676;DHT22;4375;52.486;13.424;2023-07-08T15:32:51;30.00;49.00
8676;DHT22;4375;52.486;13.424;2023-07-08T15:35:19;29.80;49.20
8676;DHT22;4375;52.486;13.424;2023-07-08T15:37:45;29.70;49.30
8676;DHT22;4375;52.486;13.424;2023-07-08T15:40:16;29.60;49.00
8676;DHT22;4375;52.486;13.424;2023-07-08T15:42:43;29.60;49.30
8676;DHT22;4375;52.486;13.424;2023-07-08T15:45:13;29.60;49.80
8676;DHT22;4375;52.486;13.424;2023-07-08T15:47:40;29.60;48.60
8676;DHT22;4375;52.486;13.424;2023-07-08T15:50:14;29.60;48.30
8676;DHT22;4375;52.486;13.424;2023-07-08T15:52:40;29.60;48.30
8676;DHT22;4375;52.486;13.424;2023-07-08T15:55:10;29.60;47.90
8676;DHT22;4375;52.486;13.424;2023-07-08T15:57:49;29.50;48.20
8676;DHT22;4375;52.486;13.424;2023-07-08T16:00:23;29.50;48.50
8676;DHT22;4375;52.486;13.424;2023-07-08T16:02:55;29.60;49.20
8676;DHT22;4375;52.486;13.424;2023-07-08T16:05:21;29.70;48.60
8676;DHT22;4375;52.486;13.424;2023-07-08T16:07:49;29.70;49.40
8676;DHT22;4375;52.486;13.424;2023-07-08T16:10:16;29.60;48.60
8676;DHT22;4375;52.486;13.424;2023-07-08T16:12:42;29.50;48.80
8676;DHT22;4375;52.486;13.424;2023-07-08T16:15:19;29.40;49.50
8676;DHT22;4375;52.486;13.424;2023-07-08T16:17:48;29.40;49.30
8676;DHT22;4375;52.486;13.424;2023-07-08T16:20:19;29.40;48.40
8676;DHT22;4375;52.486;13.424;2023-07-08T16:22:46;29.30;49.00
8676;DHT22;4375;52.486;13.424;2023-07-08T16:25:35;29.30;50.00
8676;DHT22;4375;52.486;13.424;2023-07-08T16:28:03;29.20;49.80
8676;DHT22;4375;52.486;13.424;2023-07-08T16:30:29;29.10;50.80
8676;DHT22;4375;52.486;13.424;2023-07-08T16:32:55;29.20;50.60
8676;DHT22;4375;52.486;13.424;2023-07-08T16:35:22;29.10;50.30
8676;DHT22;4375;52.486;13.424;2023-07-08T16:37:50;29.00;50.40
8676;DHT22;4375;52.486;13.424;2023-07-08T16:40:19;29.00;50.40
8676;DHT22;4375;52.486;13.424;2023-07-08T16:42:47;29.00;50.50
8676;DHT22;4375;52.486;13.424;2023-07-08T16:45:15;28.90;50.70
8676;DHT22;4375;52.486;13.424;2023-07-08T16:47:42;28.90;50.60
8676;DHT22;4375;52.486;13.424;2023-07-08T16:50:08;28.90;50.80
8676;DHT22;4375;52.486;13.424;2023-07-08T16:52:34;28.80;50.70
8676;DHT22;4375;52.486;13.424;2023-07-08T16:55:01;28.80;50.50
8676;DHT22;4375;52.486;13.424;2023-07-08T16:57:27;28.90;49.90
8676;DHT22;4375;52.486;13.424;2023-07-08T16:59:53;28.80;49.80
8676;DHT22;4375;52.486;13.424;2023-07-08T17:02:19;28.80;49.80
8676;DHT22;4375;52.486;13.424;2023-07-08T17:04:50;28.80;49.90
8676;DHT22;4375;52.486;13.424;2023-07-08T17:07:16;28.80;50.20
8676;DHT22;4375;52.486;13.424;2023-07-08T17:09:42;28.70;50.00
8676;DHT22;4375;52.486;13.424;2023-07-08T17:12:08;28.70;49.80
8676;DHT22;4375;52.486;13.424;2023-07-08T17:14:35;28.70;49.80
8676;DHT22;4375;52.486;13.424;2023-07-08T17:17:02;28.80;50.00
8676;DHT22;4375;52.486;13.424;2023-07-08T17:19:28;28.70;50.40
8676;DHT22;4375;52.486;13.424;2023-07-08T17:21:53;28.70;50.00
8676;DHT22;4375;52.486;13.424;2023-07-08T17:24:19;28.70;49.70